TXKF/BDA METAR and TAF weather

Enter ICAO airport designator
Station Type Date Time Source
TXKF METAR 2019/04/18 10:55 UTC NOAA

TXKF 181055Z 35005KT 9999 FEW026 FEW055 SCT300 19/14 Q1023


Station Type Date Time Source
TXKF Decoded METAR 2019/04/18 10:55 UTC NOAA

Bermuda, Bermuda (TXKF) 32-22N 064-41W
Apr 18, 2019 - 06:55 AM EDT / 2019.04.18 1055 UTC
Wind: from the N (350 degrees) at 6 MPH (5 KT):0
Visibility: greater than 7 mile(s):0
Sky conditions: partly cloudy
Temperature: 66 F (19 C)
Dew Point: 57 F (14 C)
Relative Humidity: 72%
Pressure (altimeter): 30.21 in. Hg (1023 hPa)
ob: TXKF 181055Z 35005KT 9999 FEW026 FEW055 SCT300 19/14 Q1023
cycle: 11

Station Type Date Time Source
TXKF TAF 2019/04/18 06:43 UTC NOAA

TAF TXKF 180535Z 1806/1906 32005KT 9999 SCT025
BECMG 1810/1812 02010KT FEW010 SCT015
BECMG 1818/1821 07012KT SCT010 BKN015

Example: see airport list